Time;durP1;ratioP1;P1;durP2;ratioP2;P2;SDS_P1;SDS_P2;PMS_P1;PMS_P2;Temp;Humidity;BMP_temperature;BMP_pressure;BME280_temperature;BME280_humidity;BME280_pressure;Samples;Min_cycle;Max_cycle;Signal;HPM_P1;HPM_P2
2021/09/12 00:00:00;;;;;;;;;7.67;7.00;;;;;;;;5007097;28;45512;-80
2021/09/12 00:02:25;;;;;;;;;7.75;6.00;;;;;;;;5008300;28;45344;-80
2021/09/12 00:04:50;;;;;;;;;7.75;7.75;;;;;;;;5008466;28;45516;-80
2021/09/12 00:07:15;;;;;;;;;7.67;5.33;;;;;;;;5021870;28;45369;-80
2021/09/12 00:09:41;;;;;;;;;6.00;4.67;;;;;;;;5008306;28;45390;-80
2021/09/12 00:12:06;;;;;;;;;6.25;4.00;;;;;;;;5013466;28;45437;-80
2021/09/12 00:14:32;;;;;;;;;5.25;5.00;;;;;;;;5012374;28;46045;-80
2021/09/12 00:16:57;;;;;;;;;5.00;4.25;;;;;;;;5010900;28;45428;-80
2021/09/12 00:19:24;;;;;;;;;5.00;4.00;;;;;;;;5011564;28;45513;-80
2021/09/12 00:21:49;;;;;;;;;5.00;5.00;;;;;;;;5008704;28;45450;-80
2021/09/12 00:24:14;;;;;;;;;8.00;4.67;;;;;;;;5015685;28;45309;-79
2021/09/12 00:26:39;;;;;;;;;6.00;4.67;;;;;;;;5003342;28;45565;-80
2021/09/12 00:29:05;;;;;;;;;4.00;4.00;;;;;;;;5013128;28;45295;-80
2021/09/12 00:31:30;;;;;;;;;4.00;4.00;;;;;;;;5012886;28;45545;-81
2021/09/12 00:33:55;;;;;;;;;3.00;3.00;;;;;;;;5001172;28;45543;-80
2021/09/12 00:36:20;;;;;;;;;4.00;4.00;;;;;;;;5007859;28;47400;-80
2021/09/12 00:38:46;;;;;;;;;2.33;2.33;;;;;;;;5008481;28;45392;-80
2021/09/12 00:41:11;;;;;;;;;3.00;3.00;;;;;;;;5009669;28;45411;-80
2021/09/12 00:43:37;;;;;;;;;4.50;3.75;;;;;;;;5009556;28;45543;-80
2021/09/12 00:46:06;;;;;;;;;4.00;3.25;;;;;;;;5016039;28;45647;-80
2021/09/12 00:48:32;;;;;;;;;6.00;3.75;;;;;;;;5006265;28;45550;-79
2021/09/12 00:50:57;;;;;;;;;6.00;4.25;;;;;;;;5012945;28;45515;-79
2021/09/12 00:53:22;;;;;;;;;3.33;3.33;;;;;;;;5008244;28;46383;-80
2021/09/12 00:55:49;;;;;;;;;8.50;3.25;;;;;;;;5009949;28;45469;-80
2021/09/12 00:58:17;;;;;;;;;5.75;4.00;;;;;;;;5011652;28;45353;-80
2021/09/12 01:00:43;;;;;;;;;6.00;5.00;;;;;;;;5009294;28;45454;-80
2021/09/12 01:03:08;;;;;;;;;5.75;3.75;;;;;;;;5011435;28;45909;-80
2021/09/12 01:05:33;;;;;;;;;7.25;6.25;;;;;;;;5003179;28;45362;-80
2021/09/12 01:07:59;;;;;;;;;6.25;5.00;;;;;;;;5011018;28;45580;-80
2021/09/12 01:10:24;;;;;;;;;4.00;3.00;;;;;;;;5011287;28;45509;-79
2021/09/12 01:12:49;;;;;;;;;6.00;4.00;;;;;;;;5007687;28;46313;-80
2021/09/12 01:15:14;;;;;;;;;5.33;5.33;;;;;;;;5008199;28;45628;-80
2021/09/12 01:17:40;;;;;;;;;4.33;4.33;;;;;;;;5007375;28;46518;-80
2021/09/12 01:20:05;;;;;;;;;5.00;5.00;;;;;;;;5006769;28;45421;-80
2021/09/12 01:22:30;;;;;;;;;7.25;4.50;;;;;;;;5015786;28;46150;-80
2021/09/12 01:24:56;;;;;;;;;5.00;5.00;;;;;;;;5009124;28;45346;-80
2021/09/12 01:27:21;;;;;;;;;5.50;5.50;;;;;;;;4999868;28;45450;-81
2021/09/12 01:29:46;;;;;;;;;5.75;4.50;;;;;;;;5011322;28;45545;-80
2021/09/12 01:32:12;;;;;;;;;4.33;4.33;;;;;;;;5007124;28;46178;-78
2021/09/12 01:34:37;;;;;;;;;5.25;5.00;;;;;;;;5001189;28;45969;-80
2021/09/12 01:37:02;;;;;;;;;8.00;5.00;;;;;;;;5008364;28;45345;-80
2021/09/12 01:39:28;;;;;;;;;5.75;4.50;;;;;;;;5015632;28;45400;-80
2021/09/12 01:41:53;;;;;;;;;4.00;4.00;;;;;;;;5010078;28;45553;-80
2021/09/12 01:44:24;;;;;;;;;5.00;3.50;;;;;;;;5011073;28;45528;-80
2021/09/12 01:46:49;;;;;;;;;4.50;4.50;;;;;;;;5013874;28;45566;-79
2021/09/12 01:49:15;;;;;;;;;6.75;4.75;;;;;;;;5011100;28;46635;-80
2021/09/12 01:51:40;;;;;;;;;4.75;4.00;;;;;;;;5012123;28;45618;-79
2021/09/12 01:54:06;;;;;;;;;7.25;3.25;;;;;;;;5006945;28;45477;-80
2021/09/12 01:56:31;;;;;;;;;5.33;4.00;;;;;;;;5007075;28;45496;-79
2021/09/12 01:58:56;;;;;;;;;5.25;4.00;;;;;;;;5012619;28;45377;-80
2021/09/12 02:01:22;;;;;;;;;6.25;6.00;;;;;;;;5015413;28;45984;-80
2021/09/12 02:03:47;;;;;;;;;5.33;4.33;;;;;;;;5013315;28;45426;-80
2021/09/12 02:06:13;;;;;;;;;5.00;5.00;;;;;;;;5008079;28;45530;-79
2021/09/12 02:08:38;;;;;;;;;3.00;3.00;;;;;;;;5009030;28;45489;-80
2021/09/12 02:11:03;;;;;;;;;4.33;4.00;;;;;;;;5010741;28;46008;-79
2021/09/12 02:13:29;;;;;;;;;6.00;4.00;;;;;;;;5010756;28;45327;-79
2021/09/12 02:15:54;;;;;;;;;6.25;5.00;;;;;;;;5018374;28;45442;-79
2021/09/12 02:18:19;;;;;;;;;6.50;3.00;;;;;;;;5011231;28;45467;-79
2021/09/12 02:20:44;;;;;;;;;3.33;3.33;;;;;;;;5013931;28;45463;-79
2021/09/12 02:23:10;;;;;;;;;4.67;2.33;;;;;;;;5011031;28;45569;-79
2021/09/12 02:25:35;;;;;;;;;3.67;3.67;;;;;;;;5007816;28;45628;-79
2021/09/12 02:28:01;;;;;;;;;4.00;3.67;;;;;;;;5007089;28;45401;-80
2021/09/12 02:30:26;;;;;;;;;6.25;5.25;;;;;;;;5009261;28;45485;-79
2021/09/12 02:32:52;;;;;;;;;4.00;3.50;;;;;;;;5014154;28;45237;-78
2021/09/12 02:35:17;;;;;;;;;3.50;3.50;;;;;;;;5011939;28;45447;-79
2021/09/12 02:37:42;;;;;;;;;4.00;4.00;;;;;;;;5014801;28;45440;-79
2021/09/12 02:40:08;;;;;;;;;4.33;3.00;;;;;;;;5015002;28;45906;-79
2021/09/12 02:42:33;;;;;;;;;5.00;4.25;;;;;;;;5009807;28;45510;-79
2021/09/12 02:44:58;;;;;;;;;5.67;4.00;;;;;;;;5014318;28;45355;-79
2021/09/12 02:47:23;;;;;;;;;4.00;4.00;;;;;;;;5015200;28;45244;-79
2021/09/12 02:49:48;;;;;;;;;3.00;3.00;;;;;;;;5012448;28;46117;-79
2021/09/12 02:52:13;;;;;;;;;5.00;5.00;;;;;;;;5025512;28;45314;-79
2021/09/12 02:54:39;;;;;;;;;9.00;3.00;;;;;;;;5004117;28;45362;-80
2021/09/12 02:57:04;;;;;;;;;6.00;4.00;;;;;;;;5007858;28;45468;-79
2021/09/12 02:59:29;;;;;;;;;3.25;3.25;;;;;;;;5013893;28;47095;-79
2021/09/12 03:01:55;;;;;;;;;4.00;3.00;;;;;;;;5003509;28;46168;-80
2021/09/12 03:04:20;;;;;;;;;7.00;4.25;;;;;;;;5011616;28;45448;-79
2021/09/12 03:06:45;;;;;;;;;5.33;3.00;;;;;;;;5015711;28;45423;-80
2021/09/12 03:09:10;;;;;;;;;4.00;3.00;;;;;;;;5014399;28;45588;-79
2021/09/12 03:11:36;;;;;;;;;5.00;4.00;;;;;;;;5009887;28;45444;-79
2021/09/12 03:14:01;;;;;;;;;3.33;3.33;;;;;;;;5012403;28;45451;-79
2021/09/12 03:16:26;;;;;;;;;4.00;2.33;;;;;;;;5011202;28;45371;-79
2021/09/12 03:18:51;;;;;;;;;4.50;4.00;;;;;;;;5009901;28;46027;-78
2021/09/12 03:21:17;;;;;;;;;4.33;3.00;;;;;;;;5018829;28;45391;-79
2021/09/12 03:23:42;;;;;;;;;6.00;3.25;;;;;;;;5007470;28;45522;-79
2021/09/12 03:26:08;;;;;;;;;4.00;4.00;;;;;;;;5005960;28;45500;-79
2021/09/12 03:28:33;;;;;;;;;4.00;4.00;;;;;;;;5004267;28;45570;-79
2021/09/12 03:30:58;;;;;;;;;6.00;3.00;;;;;;;;5013912;28;45714;-79
2021/09/12 03:33:24;;;;;;;;;4.00;3.25;;;;;;;;5006417;28;45474;-79
2021/09/12 03:35:49;;;;;;;;;4.50;3.25;;;;;;;;5008562;28;45439;-79
2021/09/12 03:38:14;;;;;;;;;5.00;3.00;;;;;;;;5012411;28;45685;-79
2021/09/12 03:40:40;;;;;;;;;2.75;2.75;;;;;;;;5010815;28;45581;-79
2021/09/12 03:43:05;;;;;;;;;5.00;4.00;;;;;;;;5014113;28;45889;-80
2021/09/12 03:45:30;;;;;;;;;5.50;4.00;;;;;;;;5017862;28;45487;-79
2021/09/12 03:47:56;;;;;;;;;6.00;6.00;;;;;;;;5010338;28;45458;-79
2021/09/12 03:50:21;;;;;;;;;10.33;8.67;;;;;;;;5013108;28;45401;-79
2021/09/12 03:52:46;;;;;;;;;12.00;7.67;;;;;;;;5011953;28;45486;-79
2021/09/12 03:55:11;;;;;;;;;7.33;6.33;;;;;;;;5007902;28;45574;-79
2021/09/12 03:57:37;;;;;;;;;6.00;6.00;;;;;;;;5000009;28;45451;-79
2021/09/12 04:00:03;;;;;;;;;14.00;7.25;;;;;;;;5006600;28;45468;-79
2021/09/12 04:02:29;;;;;;;;;9.00;6.75;;;;;;;;5010405;28;45493;-79
2021/09/12 04:04:54;;;;;;;;;9.67;8.33;;;;;;;;5010286;28;45443;-79
2021/09/12 04:07:19;;;;;;;;;8.67;6.67;;;;;;;;5013080;28;45634;-80
2021/09/12 04:09:44;;;;;;;;;11.33;9.67;;;;;;;;5012379;28;45597;-79
2021/09/12 04:12:10;;;;;;;;;9.33;6.33;;;;;;;;5013104;28;45467;-79
2021/09/12 04:14:35;;;;;;;;;10.75;5.50;;;;;;;;5006080;28;45426;-79
2021/09/12 04:17:00;;;;;;;;;7.50;7.00;;;;;;;;5008883;28;45467;-79
2021/09/12 04:19:25;;;;;;;;;8.00;7.67;;;;;;;;5013515;28;45531;-79
2021/09/12 04:21:51;;;;;;;;;2.67;2.00;;;;;;;;5014294;28;45328;-80
2021/09/12 04:24:16;;;;;;;;;9.00;6.00;;;;;;;;5008562;28;45364;-79
2021/09/12 04:26:41;;;;;;;;;10.33;6.00;;;;;;;;5015675;28;45492;-80
2021/09/12 04:29:06;;;;;;;;;9.67;9.00;;;;;;;;5012047;28;45397;-79
2021/09/12 04:31:32;;;;;;;;;11.00;9.00;;;;;;;;5012995;28;45541;-78
2021/09/12 04:33:57;;;;;;;;;10.33;10.00;;;;;;;;5013874;28;45507;-79
2021/09/12 04:36:22;;;;;;;;;14.33;11.33;;;;;;;;5006817;28;46014;-79
2021/09/12 04:38:47;;;;;;;;;10.67;10.33;;;;;;;;5001228;28;45430;-79
2021/09/12 04:41:12;;;;;;;;;10.67;9.67;;;;;;;;5013256;28;45350;-79
2021/09/12 04:43:38;;;;;;;;;20.00;15.00;;;;;;;;5012726;28;45387;-79
2021/09/12 04:46:03;;;;;;;;;20.25;16.00;;;;;;;;5005785;28;46856;-79
2021/09/12 04:48:28;;;;;;;;;13.00;12.50;;;;;;;;5012757;28;45398;-79
2021/09/12 04:50:55;;;;;;;;;14.75;11.00;;;;;;;;5011009;28;45460;-78
2021/09/12 04:53:20;;;;;;;;;14.50;11.75;;;;;;;;5007669;28;45407;-79
2021/09/12 04:55:45;;;;;;;;;13.00;10.67;;;;;;;;5002990;28;45914;-79
2021/09/12 04:58:11;;;;;;;;;12.33;10.67;;;;;;;;4998973;28;45407;-79
2021/09/12 05:00:36;;;;;;;;;13.67;11.00;;;;;;;;5013852;28;45661;-79
2021/09/12 05:03:01;;;;;;;;;11.67;8.67;;;;;;;;5008395;28;45340;-79
2021/09/12 05:05:26;;;;;;;;;9.67;7.33;;;;;;;;5011008;28;46037;-79
2021/09/12 05:07:54;;;;;;;;;7.67;7.00;;;;;;;;5015411;28;45457;-79
2021/09/12 05:10:19;;;;;;;;;7.25;6.00;;;;;;;;5013047;28;45457;-79
2021/09/12 05:12:45;;;;;;;;;9.00;6.00;;;;;;;;5008851;28;45436;-79
2021/09/12 05:15:10;;;;;;;;;7.00;7.00;;;;;;;;5010881;28;45648;-79
2021/09/12 05:17:35;;;;;;;;;9.25;6.25;;;;;;;;5022622;28;45413;-79
2021/09/12 05:20:00;;;;;;;;;9.00;7.00;;;;;;;;5014596;28;45627;-79
2021/09/12 05:22:26;;;;;;;;;7.33;6.00;;;;;;;;5012675;28;45331;-79
2021/09/12 05:24:51;;;;;;;;;11.25;8.25;;;;;;;;5018227;28;47266;-79
2021/09/12 05:27:16;;;;;;;;;10.67;8.33;;;;;;;;5006803;28;45427;-79
2021/09/12 05:29:41;;;;;;;;;12.67;11.33;;;;;;;;5012176;28;45413;-80
2021/09/12 05:32:07;;;;;;;;;12.00;10.33;;;;;;;;5016162;28;45421;-79
2021/09/12 05:34:32;;;;;;;;;9.33;8.00;;;;;;;;5015532;28;45388;-80
2021/09/12 05:36:57;;;;;;;;;10.67;8.67;;;;;;;;5010403;28;45470;-79
2021/09/12 05:39:22;;;;;;;;;13.33;10.33;;;;;;;;5012037;28;46111;-79
2021/09/12 05:41:47;;;;;;;;;11.00;10.33;;;;;;;;5013218;28;45495;-79
2021/09/12 05:44:13;;;;;;;;;12.33;11.00;;;;;;;;5015238;28;45410;-79
2021/09/12 05:46:38;;;;;;;;;11.67;11.00;;;;;;;;5011818;28;45590;-79
2021/09/12 05:49:03;;;;;;;;;11.67;10.00;;;;;;;;5009019;28;50390;-79
2021/09/12 05:51:29;;;;;;;;;10.25;8.25;;;;;;;;5015090;28;45487;-79
2021/09/12 05:53:54;;;;;;;;;9.50;7.00;;;;;;;;5015162;28;48996;-79
2021/09/12 05:56:19;;;;;;;;;9.00;6.33;;;;;;;;5014785;28;45663;-79
2021/09/12 05:58:44;;;;;;;;;8.67;6.67;;;;;;;;5001749;28;45536;-79
2021/09/12 06:01:11;;;;;;;;;10.67;8.33;;;;;;;;5014525;28;45451;-79
2021/09/12 06:03:37;;;;;;;;;8.00;8.00;;;;;;;;5016385;28;45511;-79
2021/09/12 06:06:02;;;;;;;;;7.75;7.25;;;;;;;;5008293;28;45355;-79
2021/09/12 06:08:27;;;;;;;;;10.67;8.67;;;;;;;;5002965;28;45338;-79
2021/09/12 06:10:53;;;;;;;;;10.00;7.00;;;;;;;;5012118;28;45394;-78
2021/09/12 06:13:18;;;;;;;;;6.33;6.33;;;;;;;;5013956;28;47385;-79
2021/09/12 06:15:43;;;;;;;;;7.75;7.00;;;;;;;;5008843;28;45640;-78
2021/09/12 06:18:08;;;;;;;;;5.67;5.67;;;;;;;;5017273;28;45602;-79
2021/09/12 06:20:34;;;;;;;;;5.00;4.00;;;;;;;;5013829;28;45666;-79
2021/09/12 06:22:59;;;;;;;;;9.25;7.25;;;;;;;;5013967;28;46169;-79
2021/09/12 06:25:24;;;;;;;;;9.33;5.33;;;;;;;;4999801;28;45355;-79
2021/09/12 06:27:49;;;;;;;;;5.67;4.33;;;;;;;;5015571;28;45316;-79
2021/09/12 06:30:17;;;;;;;;;6.00;6.00;;;;;;;;5015655;28;45428;-78
2021/09/12 06:32:42;;;;;;;;;4.50;4.50;;;;;;;;5009129;28;45471;-79
2021/09/12 06:35:07;;;;;;;;;4.00;4.00;;;;;;;;5010839;28;45835;-78
2021/09/12 06:37:33;;;;;;;;;3.25;3.25;;;;;;;;5013338;28;45431;-78
2021/09/12 06:39:58;;;;;;;;;6.25;5.50;;;;;;;;5015353;28;45404;-79
2021/09/12 06:42:24;;;;;;;;;6.25;4.00;;;;;;;;5015362;28;45420;-79
2021/09/12 06:44:49;;;;;;;;;6.00;4.67;;;;;;;;5005533;28;45448;-79
2021/09/12 06:47:14;;;;;;;;;6.67;4.67;;;;;;;;5014727;28;45449;-80
2021/09/12 06:49:39;;;;;;;;;6.67;5.00;;;;;;;;5014362;28;45274;-79
2021/09/12 06:52:05;;;;;;;;;3.00;3.00;;;;;;;;5007756;28;48336;-79
2021/09/12 06:54:30;;;;;;;;;5.50;4.75;;;;;;;;5013999;28;45480;-79
2021/09/12 06:56:55;;;;;;;;;6.67;4.00;;;;;;;;5009658;28;45389;-78
2021/09/12 06:59:20;;;;;;;;;4.00;3.00;;;;;;;;5014206;28;45318;-79
2021/09/12 07:01:46;;;;;;;;;7.00;5.00;;;;;;;;5011000;28;45347;-79
2021/09/12 07:04:11;;;;;;;;;6.25;4.00;;;;;;;;5007364;28;45395;-79
2021/09/12 07:06:36;;;;;;;;;8.00;4.50;;;;;;;;5015101;28;45307;-79
2021/09/12 07:09:02;;;;;;;;;3.00;3.00;;;;;;;;5014110;28;45496;-79
2021/09/12 07:11:27;;;;;;;;;5.00;3.75;;;;;;;;5014534;28;45457;-79
2021/09/12 07:13:53;;;;;;;;;3.33;3.00;;;;;;;;5012880;28;45502;-79
2021/09/12 07:16:18;;;;;;;;;3.67;3.00;;;;;;;;4997579;28;45437;-79
2021/09/12 07:18:43;;;;;;;;;7.00;5.00;;;;;;;;5003603;28;45328;-79
2021/09/12 07:21:08;;;;;;;;;2.33;2.33;;;;;;;;5001343;28;47070;-78
2021/09/12 07:23:33;;;;;;;;;4.33;3.00;;;;;;;;5014203;28;45307;-83
2021/09/12 07:25:59;;;;;;;;;3.00;3.00;;;;;;;;5011461;28;45485;-80
2021/09/12 07:28:24;;;;;;;;;5.00;3.50;;;;;;;;5012519;28;45409;-79
2021/09/12 07:30:49;;;;;;;;;7.33;4.33;;;;;;;;5008703;28;46336;-58
2021/09/12 07:33:14;;;;;;;;;6.67;4.67;;;;;;;;5007691;28;45319;-71
2021/09/12 07:35:40;;;;;;;;;5.00;4.00;;;;;;;;5009053;28;45505;-57
2021/09/12 07:38:05;;;;;;;;;6.00;4.00;;;;;;;;5013725;28;45418;-60
2021/09/12 07:40:30;;;;;;;;;7.00;3.33;;;;;;;;5013033;28;46030;-57
2021/09/12 07:42:55;;;;;;;;;4.00;4.00;;;;;;;;5009401;28;45468;-56
2021/09/12 07:45:20;;;;;;;;;5.00;5.00;;;;;;;;5006732;28;45457;-60
2021/09/12 07:47:46;;;;;;;;;16.67;12.00;;;;;;;;5012843;28;45478;-59
2021/09/12 07:50:12;;;;;;;;;5.67;5.67;;;;;;;;5012940;28;45461;-63
2021/09/12 07:52:41;;;;;;;;;9.75;7.75;;;;;;;;5013527;28;45554;-67
2021/09/12 07:55:07;;;;;;;;;4.00;4.00;;;;;;;;5001602;28;48967;-58
2021/09/12 07:57:32;;;;;;;;;4.75;4.75;;;;;;;;5008754;28;45422;-58
2021/09/12 07:59:57;;;;;;;;;3.67;3.67;;;;;;;;5006777;28;46304;-58
2021/09/12 08:02:22;;;;;;;;;5.00;4.00;;;;;;;;5006739;28;45584;-58
2021/09/12 08:04:48;;;;;;;;;8.00;5.00;;;;;;;;5002269;28;45534;-58
2021/09/12 08:07:13;;;;;;;;;21.33;14.67;;;;;;;;5015371;28;45626;-58
2021/09/12 08:09:38;;;;;;;;;12.00;8.67;;;;;;;;5009357;28;46137;-58
2021/09/12 08:12:03;;;;;;;;;4.33;4.33;;;;;;;;5006264;28;45535;-58
2021/09/12 08:14:29;;;;;;;;;8.00;7.00;;;;;;;;5012063;28;45457;-58
2021/09/12 08:16:54;;;;;;;;;9.50;7.00;;;;;;;;5007662;28;45748;-58
2021/09/12 08:19:19;;;;;;;;;8.00;6.00;;;;;;;;5012384;28;46105;-58
2021/09/12 08:21:44;;;;;;;;;5.00;5.00;;;;;;;;5010125;28;45322;-58
2021/09/12 08:24:10;;;;;;;;;7.75;4.75;;;;;;;;5007344;28;45502;-58
2021/09/12 08:26:35;;;;;;;;;4.00;4.00;;;;;;;;5008733;28;45467;-58
2021/09/12 08:29:00;;;;;;;;;6.00;3.67;;;;;;;;5012720;28;46152;-58
2021/09/12 08:31:25;;;;;;;;;4.00;4.00;;;;;;;;5013502;28;45510;-58
2021/09/12 08:33:51;;;;;;;;;4.25;4.25;;;;;;;;5007657;28;45356;-58
2021/09/12 08:36:16;;;;;;;;;3.67;3.67;;;;;;;;5004645;28;45331;-60
2021/09/12 08:38:41;;;;;;;;;3.00;3.00;;;;;;;;5012765;28;46171;-60
2021/09/12 08:41:08;;;;;;;;;3.00;3.00;;;;;;;;5008384;28;45526;-60
2021/09/12 08:43:34;;;;;;;;;4.25;3.00;;;;;;;;5012415;28;45482;-60
2021/09/12 08:46:00;;;;;;;;;5.50;4.00;;;;;;;;5012512;28;45432;-60
2021/09/12 08:48:25;;;;;;;;;4.00;3.00;;;;;;;;5013524;28;45915;-60
2021/09/12 08:50:50;;;;;;;;;5.00;3.00;;;;;;;;5015134;28;45537;-60
2021/09/12 08:53:15;;;;;;;;;4.00;3.00;;;;;;;;5020138;28;45398;-58
2021/09/12 08:55:40;;;;;;;;;6.00;4.67;;;;;;;;5010815;28;45473;-58
2021/09/12 08:58:06;;;;;;;;;4.33;3.00;;;;;;;;5009354;28;46067;-58
2021/09/12 09:00:31;;;;;;;;;6.00;4.25;;;;;;;;5018919;28;45348;-58
2021/09/12 09:03:02;;;;;;;;;5.00;4.00;;;;;;;;5010335;28;45643;-58
2021/09/12 09:05:29;;;;;;;;;4.00;2.00;;;;;;;;5015657;28;45377;-58
2021/09/12 09:08:08;;;;;;;;;5.00;4.00;;;;;;;;5014380;28;46139;-58
2021/09/12 09:10:36;;;;;;;;;4.00;4.00;;;;;;;;5012479;28;45331;-59
2021/09/12 09:13:02;;;;;;;;;3.00;3.00;;;;;;;;5011155;28;45464;-59
2021/09/12 09:15:27;;;;;;;;;4.00;4.00;;;;;;;;5009498;28;46253;-58
2021/09/12 09:17:54;;;;;;;;;5.00;3.00;;;;;;;;5009937;28;46260;-59
2021/09/12 09:20:31;;;;;;;;;4.50;4.50;;;;;;;;5007767;28;45643;-59
2021/09/12 09:22:57;;;;;;;;;6.00;4.50;;;;;;;;5004363;28;45673;-58
2021/09/12 09:25:24;;;;;;;;;4.00;4.00;;;;;;;;5005077;28;45288;-58
2021/09/12 09:27:50;;;;;;;;;5.25;3.50;;;;;;;;5011554;28;45392;-58
2021/09/12 09:30:15;;;;;;;;;4.00;4.00;;;;;;;;5013987;28;45854;-59
2021/09/12 09:32:41;;;;;;;;;3.00;3.00;;;;;;;;5010188;28;45508;-58
2021/09/12 09:35:06;;;;;;;;;4.00;4.00;;;;;;;;5012730;28;45404;-59
2021/09/12 09:37:31;;;;;;;;;3.00;3.00;;;;;;;;5014112;28;46313;-58
2021/09/12 09:39:57;;;;;;;;;4.67;3.00;;;;;;;;5007515;28;45684;-58
2021/09/12 09:42:34;;;;;;;;;3.00;3.00;;;;;;;;5016128;28;45477;-59
2021/09/12 09:45:04;;;;;;;;;4.00;4.00;;;;;;;;5009681;28;45439;-61
2021/09/12 09:47:29;;;;;;;;;7.25;5.25;;;;;;;;5009987;28;46840;-62
2021/09/12 09:50:14;;;;;;;;;7.25;7.25;;;;;;;;5003928;28;45446;-60
2021/09/12 09:52:47;;;;;;;;;7.00;6.00;;;;;;;;5012727;28;45281;-61
2021/09/12 09:55:15;;;;;;;;;7.50;5.00;;;;;;;;5007140;28;45526;-61
2021/09/12 09:57:42;;;;;;;;;10.50;7.50;;;;;;;;5006204;28;45533;-61
2021/09/12 10:00:07;;;;;;;;;12.50;11.25;;;;;;;;5011768;28;45391;-61
2021/09/12 10:02:34;;;;;;;;;13.50;11.25;;;;;;;;5009393;28;46450;-60
2021/09/12 10:05:00;;;;;;;;;5.00;4.00;;;;;;;;5010410;28;45603;-61
2021/09/12 10:07:25;;;;;;;;;3.00;3.00;;;;;;;;5001558;28;47038;-61
2021/09/12 10:09:50;;;;;;;;;5.00;4.00;;;;;;;;4999434;28;45327;-61
2021/09/12 10:12:16;;;;;;;;;4.00;2.00;;;;;;;;5010077;28;45582;-61
2021/09/12 10:14:50;;;;;;;;;3.00;3.00;;;;;;;;5011142;28;45503;-61
2021/09/12 10:17:19;;;;;;;;;4.00;2.50;;;;;;;;5011071;28;46218;-61
2021/09/12 10:19:44;;;;;;;;;4.00;2.00;;;;;;;;5015156;28;46091;-61
2021/09/12 10:22:11;;;;;;;;;2.67;2.67;;;;;;;;5012519;28;45561;-61
2021/09/12 10:24:55;;;;;;;;;4.75;3.00;;;;;;;;5009715;28;45401;-61
2021/09/12 10:27:46;;;;;;;;;2.00;2.00;;;;;;;;5010881;28;46434;-61
2021/09/12 10:30:19;;;;;;;;;1.75;1.75;;;;;;;;4951761;28;45930;-61
2021/09/12 10:32:45;;;;;;;;;2.75;2.00;;;;;;;;4946996;28;45655;-61
2021/09/12 10:35:14;;;;;;;;;2.00;2.00;;;;;;;;4943184;28;45273;-61
2021/09/12 10:37:40;;;;;;;;;2.75;2.75;;;;;;;;4951138;28;45910;-61
2021/09/12 10:40:05;;;;;;;;;1.67;1.67;;;;;;;;4954338;28;45741;-61
2021/09/12 10:42:43;;;;;;;;;2.00;2.00;;;;;;;;4946319;28;45495;-61
2021/09/12 10:45:19;;;;;;;;;2.00;2.00;;;;;;;;4944242;28;45419;-61
2021/09/12 10:47:45;;;;;;;;;3.50;2.50;;;;;;;;4938277;28;45634;-61
2021/09/12 10:50:29;;;;;;;;;4.00;3.50;;;;;;;;4949114;28;45796;-61
2021/09/12 10:52:56;;;;;;;;;3.00;3.00;;;;;;;;4947191;28;45640;-62
2021/09/12 10:55:21;;;;;;;;;2.00;2.00;;;;;;;;4951688;28;45907;-61
2021/09/12 10:57:46;;;;;;;;;7.33;6.67;;;;;;;;4952043;28;46353;-61
2021/09/12 11:00:15;;;;;;;;;4.33;3.00;;;;;;;;4947722;28;45505;-61
2021/09/12 11:02:46;;;;;;;;;2.50;2.25;;;;;;;;4949562;28;45497;-61
2021/09/12 11:05:29;;;;;;;;;4.50;3.00;;;;;;;;4951965;28;45485;-62
2021/09/12 11:07:55;;;;;;;;;11.25;9.25;;;;;;;;4993767;28;46121;-62
2021/09/12 11:10:33;;;;;;;;;11.00;10.25;;;;;;;;5012989;28;45468;-61
2021/09/12 11:12:58;;;;;;;;;19.50;18.00;;;;;;;;5011661;28;45695;-62
2021/09/12 11:15:24;;;;;;;;;27.67;25.00;;;;;;;;5010133;28;45431;-62
2021/09/12 11:17:52;;;;;;;;;12.25;11.25;;;;;;;;5012944;28;45856;-62
2021/09/12 11:20:18;;;;;;;;;19.00;18.00;;;;;;;;5008931;28;45422;-61
2021/09/12 11:22:49;;;;;;;;;17.25;17.25;;;;;;;;5014183;28;45409;-62
2021/09/12 11:25:18;;;;;;;;;19.00;16.25;;;;;;;;5009880;28;45617;-60
2021/09/12 11:27:43;;;;;;;;;17.50;15.00;;;;;;;;5003678;28;46618;-73
2021/09/12 11:30:09;;;;;;;;;14.00;14.00;;;;;;;;5015875;28;45602;-67
2021/09/12 11:32:34;;;;;;;;;14.00;11.00;;;;;;;;5001349;28;45352;-67
2021/09/12 11:34:59;;;;;;;;;8.67;7.33;;;;;;;;5007484;28;45713;-67
2021/09/12 11:37:26;;;;;;;;;7.00;7.00;;;;;;;;5006652;28;46129;-65
2021/09/12 11:39:55;;;;;;;;;29.75;27.25;;;;;;;;4998177;28;45783;-65
2021/09/12 11:42:20;;;;;;;;;14.50;12.75;;;;;;;;5010206;28;45537;-65
2021/09/12 11:44:47;;;;;;;;;16.33;16.00;;;;;;;;5012228;28;45410;-66
2021/09/12 11:47:13;;;;;;;;;19.50;18.75;;;;;;;;5008072;28;46267;-65
2021/09/12 11:49:39;;;;;;;;;17.50;15.00;;;;;;;;5015148;28;45701;-65
2021/09/12 11:52:05;;;;;;;;;10.75;9.75;;;;;;;;5007567;28;45423;-66
2021/09/12 11:54:37;;;;;;;;;12.25;9.25;;;;;;;;5013057;28;45324;-59
2021/09/12 11:57:03;;;;;;;;;8.75;8.25;;;;;;;;5008069;28;46535;-63
2021/09/12 11:59:30;;;;;;;;;8.75;8.00;;;;;;;;5013999;28;45556;-66
2021/09/12 12:01:57;;;;;;;;;7.50;7.00;;;;;;;;5010640;28;45394;-64
2021/09/12 12:04:22;;;;;;;;;4.00;4.00;;;;;;;;5010454;28;45774;-68
2021/09/12 12:06:48;;;;;;;;;7.00;7.00;;;;;;;;5014009;28;45295;-68
2021/09/12 12:09:16;;;;;;;;;10.50;10.50;;;;;;;;5011195;28;45312;-69
2021/09/12 12:11:43;;;;;;;;;7.25;6.50;;;;;;;;5012723;28;45543;-67
2021/09/12 12:14:18;;;;;;;;;4.50;4.50;;;;;;;;5011540;28;45630;-68
2021/09/12 12:16:43;;;;;;;;;5.00;4.00;;;;;;;;5011485;28;45524;-69
2021/09/12 12:19:12;;;;;;;;;8.50;8.50;;;;;;;;5006202;28;45576;-68
2021/09/12 12:21:39;;;;;;;;;6.75;6.75;;;;;;;;5008103;28;45517;-68
2021/09/12 12:24:08;;;;;;;;;11.00;10.00;;;;;;;;5006312;28;45632;-68
2021/09/12 12:26:38;;;;;;;;;5.25;5.25;;;;;;;;5012329;28;46080;-68
2021/09/12 12:29:03;;;;;;;;;2.50;2.50;;;;;;;;5006676;28;45619;-68
2021/09/12 12:31:28;;;;;;;;;7.67;7.67;;;;;;;;5013097;28;45433;-68
2021/09/12 12:33:53;;;;;;;;;3.00;2.00;;;;;;;;5012706;28;45470;-68
2021/09/12 12:36:21;;;;;;;;;2.00;2.00;;;;;;;;5012491;28;46067;-68
2021/09/12 12:38:47;;;;;;;;;5.50;4.25;;;;;;;;5011825;28;45420;-68
2021/09/12 12:41:13;;;;;;;;;2.00;1.75;;;;;;;;4996466;28;45677;-68
2021/09/12 12:43:39;;;;;;;;;2.00;2.00;;;;;;;;5002406;28;45442;-62
2021/09/12 12:46:04;;;;;;;;;2.50;2.50;;;;;;;;5002491;28;47299;-68
2021/09/12 12:48:29;;;;;;;;;7.00;7.00;;;;;;;;5001441;28;45443;-69
2021/09/12 12:50:55;;;;;;;;;2.75;2.75;;;;;;;;5000247;28;45579;-68
2021/09/12 12:53:30;;;;;;;;;3.00;3.00;;;;;;;;5000710;28;45446;-68
2021/09/12 12:55:57;;;;;;;;;4.25;3.00;;;;;;;;5000856;28;46217;-69
2021/09/12 12:58:22;;;;;;;;;3.25;2.00;;;;;;;;5003213;28;45683;-68
2021/09/12 13:00:48;;;;;;;;;2.00;2.00;;;;;;;;5006478;28;46279;-68
2021/09/12 13:03:14;;;;;;;;;2.50;2.50;;;;;;;;5001088;28;45402;-69
2021/09/12 13:05:40;;;;;;;;;2.00;2.00;;;;;;;;5004241;28;45947;-68
2021/09/12 13:08:06;;;;;;;;;1.75;1.75;;;;;;;;4997774;28;45482;-68
2021/09/12 13:10:37;;;;;;;;;3.75;2.25;;;;;;;;5006332;28;45822;-68
2021/09/12 13:13:03;;;;;;;;;1.00;1.00;;;;;;;;5002665;28;45379;-68
2021/09/12 13:15:28;;;;;;;;;4.00;2.50;;;;;;;;5006158;28;45568;-68
2021/09/12 13:17:54;;;;;;;;;4.50;3.50;;;;;;;;5004197;28;45656;-68
2021/09/12 13:20:19;;;;;;;;;2.25;2.25;;;;;;;;4999473;28;45391;-68
2021/09/12 13:22:44;;;;;;;;;2.33;2.33;;;;;;;;5002987;28;45350;-68
2021/09/12 13:25:10;;;;;;;;;3.00;3.00;;;;;;;;5007691;28;46185;-67
2021/09/12 13:27:35;;;;;;;;;2.25;1.75;;;;;;;;5009145;28;45701;-67
2021/09/12 13:30:00;;;;;;;;;2.00;1.00;;;;;;;;5010106;28;45557;-68
2021/09/12 13:32:25;;;;;;;;;1.00;1.00;;;;;;;;5009126;28;45405;-67
2021/09/12 13:34:51;;;;;;;;;2.00;1.33;;;;;;;;4998086;28;46812;-68
2021/09/12 13:37:16;;;;;;;;;3.00;1.00;;;;;;;;5010614;28;45387;-69
2021/09/12 13:39:41;;;;;;;;;1.33;1.33;;;;;;;;5013741;28;45468;-69
2021/09/12 13:42:06;;;;;;;;;2.33;2.33;;;;;;;;5009353;28;45281;-68
2021/09/12 13:44:31;;;;;;;;;2.00;2.00;;;;;;;;4998771;28;45997;-68
2021/09/12 13:46:57;;;;;;;;;2.33;2.33;;;;;;;;5006301;28;45375;-68
2021/09/12 13:49:22;;;;;;;;;6.00;2.00;;;;;;;;5007323;28;45572;-68
2021/09/12 13:51:47;;;;;;;;;2.00;2.00;;;;;;;;5006278;28;45470;-68
2021/09/12 13:54:12;;;;;;;;;3.00;3.00;;;;;;;;5009125;28;45989;-68
2021/09/12 13:56:39;;;;;;;;;2.00;2.00;;;;;;;;5006302;28;45587;-68
2021/09/12 13:59:05;;;;;;;;;2.75;1.75;;;;;;;;5004875;28;45942;-69
2021/09/12 14:01:30;;;;;;;;;3.00;3.00;;;;;;;;5008725;28;45495;-69
2021/09/12 14:03:55;;;;;;;;;2.67;2.67;;;;;;;;5000073;28;46305;-69
2021/09/12 14:06:20;;;;;;;;;6.00;3.33;;;;;;;;5004926;28;45372;-68
2021/09/12 14:08:46;;;;;;;;;3.00;3.00;;;;;;;;5003600;28;45522;-68
2021/09/12 14:11:12;;;;;;;;;4.50;2.00;;;;;;;;5007561;28;48900;-69
2021/09/12 14:13:37;;;;;;;;;4.00;2.00;;;;;;;;5008350;28;47040;-68
2021/09/12 14:16:03;;;;;;;;;2.33;2.33;;;;;;;;5008826;28;45457;-69
2021/09/12 14:18:28;;;;;;;;;2.75;2.75;;;;;;;;5015229;28;45617;-65
2021/09/12 14:20:53;;;;;;;;;3.67;3.00;;;;;;;;5011734;28;45598;-68
2021/09/12 14:23:19;;;;;;;;;4.33;3.33;;;;;;;;5001215;28;45363;-69
2021/09/12 14:25:44;;;;;;;;;4.25;3.00;;;;;;;;5007631;28;46541;-68
2021/09/12 14:28:09;;;;;;;;;2.00;2.00;;;;;;;;5011775;28;45483;-68
2021/09/12 14:30:36;;;;;;;;;5.00;2.00;;;;;;;;5012296;28;45449;-69